Saltash, United Kingdom
Current Conditions -  °F | °C
As of 8:50 PM on Friday 19 Dec 2014 (Local Time) from EGHQ Reporting Station
Scattered Clouds Scattered Clouds  
Wind Chill: 39°   Ceiling: Unl
Heat Index: 46°   Visibility: 6mi
Dew Point: 36°   Wind: 18mph
Humidity: 66%   Direction: 270°W
Pressure: 30.3"   Gusts: NA
Location:  50.41°N, 4.21°W
Report Text: EGHQ 192050Z 27016KT 9999 SCT038 08/02 Q1026
Loading
Personal Weather Stations






























Interactive Weather Map New forecast layout! Learn more

10-Day Weather Forecast

Advertisements
Track Severe Weather on mobile